sensor_id;sensor_type;location;lat;lon;timestamp;P1;durP1;ratioP1;P2;durP2;ratioP2
6626;SDS011;3349;49.830;8.748;2022-11-15T00:02:18;6.75;;;5.20;;
6626;SDS011;3349;49.830;8.748;2022-11-15T00:04:45;7.18;;;5.40;;
6626;SDS011;3349;49.830;8.748;2022-11-15T00:07:12;6.50;;;5.07;;
6626;SDS011;3349;49.830;8.748;2022-11-15T00:09:38;7.70;;;5.30;;
6626;SDS011;3349;49.830;8.748;2022-11-15T00:12:05;9.45;;;5.45;;
6626;SDS011;3349;49.830;8.748;2022-11-15T00:14:34;11.68;;;6.05;;
6626;SDS011;3349;49.830;8.748;2022-11-15T00:17:01;10.30;;;5.93;;
6626;SDS011;3349;49.830;8.748;2022-11-15T00:19:27;9.95;;;6.05;;
6626;SDS011;3349;49.830;8.748;2022-11-15T00:21:54;8.45;;;6.10;;
6626;SDS011;3349;49.830;8.748;2022-11-15T00:24:21;9.05;;;6.22;;
6626;SDS011;3349;49.830;8.748;2022-11-15T00:26:47;7.82;;;5.53;;
6626;SDS011;3349;49.830;8.748;2022-11-15T00:29:14;7.93;;;6.25;;
6626;SDS011;3349;49.830;8.748;2022-11-15T00:31:42;8.82;;;5.82;;
6626;SDS011;3349;49.830;8.748;2022-11-15T00:34:09;8.05;;;5.18;;
6626;SDS011;3349;49.830;8.748;2022-11-15T00:36:36;10.55;;;5.75;;
6626;SDS011;3349;49.830;8.748;2022-11-15T00:39:03;7.20;;;5.68;;
6626;SDS011;3349;49.830;8.748;2022-11-15T00:41:30;8.40;;;5.50;;
6626;SDS011;3349;49.830;8.748;2022-11-15T00:43:56;8.50;;;5.75;;
6626;SDS011;3349;49.830;8.748;2022-11-15T00:46:23;8.82;;;5.97;;
6626;SDS011;3349;49.830;8.748;2022-11-15T00:48:51;8.23;;;5.88;;
6626;SDS011;3349;49.830;8.748;2022-11-15T00:51:18;11.15;;;5.68;;
6626;SDS011;3349;49.830;8.748;2022-11-15T00:53:45;10.25;;;6.10;;
6626;SDS011;3349;49.830;8.748;2022-11-15T00:56:11;9.05;;;5.97;;
6626;SDS011;3349;49.830;8.748;2022-11-15T00:58:38;10.05;;;5.75;;
6626;SDS011;3349;49.830;8.748;2022-11-15T01:01:06;6.30;;;4.60;;
6626;SDS011;3349;49.830;8.748;2022-11-15T01:03:33;6.65;;;4.72;;
6626;SDS011;3349;49.830;8.748;2022-11-15T01:06:02;5.65;;;4.68;;
6626;SDS011;3349;49.830;8.748;2022-11-15T01:08:29;8.15;;;4.57;;
6626;SDS011;3349;49.830;8.748;2022-11-15T01:10:59;5.57;;;4.72;;
6626;SDS011;3349;49.830;8.748;2022-11-15T01:13:28;6.90;;;4.75;;
6626;SDS011;3349;49.830;8.748;2022-11-15T01:15:56;5.10;;;4.15;;
6626;SDS011;3349;49.830;8.748;2022-11-15T01:18:23;7.88;;;5.05;;
6626;SDS011;3349;49.830;8.748;2022-11-15T01:20:49;6.63;;;4.65;;
6626;SDS011;3349;49.830;8.748;2022-11-15T01:23:18;6.00;;;4.28;;
6626;SDS011;3349;49.830;8.748;2022-11-15T01:25:44;5.07;;;4.20;;
6626;SDS011;3349;49.830;8.748;2022-11-15T01:28:11;4.60;;;4.10;;
6626;SDS011;3349;49.830;8.748;2022-11-15T01:30:38;6.65;;;3.78;;
6626;SDS011;3349;49.830;8.748;2022-11-15T01:33:04;7.63;;;4.50;;
6626;SDS011;3349;49.830;8.748;2022-11-15T01:35:31;6.05;;;4.00;;
6626;SDS011;3349;49.830;8.748;2022-11-15T01:37:58;7.88;;;3.92;;
6626;SDS011;3349;49.830;8.748;2022-11-15T01:40:26;5.13;;;4.22;;
6626;SDS011;3349;49.830;8.748;2022-11-15T01:42:53;7.18;;;4.40;;
6626;SDS011;3349;49.830;8.748;2022-11-15T01:45:19;4.75;;;3.60;;
6626;SDS011;3349;49.830;8.748;2022-11-15T01:47:47;8.20;;;4.45;;
6626;SDS011;3349;49.830;8.748;2022-11-15T01:50:18;7.00;;;4.47;;
6626;SDS011;3349;49.830;8.748;2022-11-15T01:52:48;6.40;;;4.15;;
6626;SDS011;3349;49.830;8.748;2022-11-15T01:55:15;7.00;;;4.50;;
6626;SDS011;3349;49.830;8.748;2022-11-15T01:57:47;7.20;;;4.75;;
6626;SDS011;3349;49.830;8.748;2022-11-15T02:00:16;5.80;;;4.50;;
6626;SDS011;3349;49.830;8.748;2022-11-15T02:02:43;5.97;;;4.68;;
6626;SDS011;3349;49.830;8.748;2022-11-15T02:05:10;6.43;;;4.63;;
6626;SDS011;3349;49.830;8.748;2022-11-15T02:07:37;6.30;;;4.93;;
6626;SDS011;3349;49.830;8.748;2022-11-15T02:10:05;7.03;;;4.50;;
6626;SDS011;3349;49.830;8.748;2022-11-15T02:12:33;6.32;;;5.25;;
6626;SDS011;3349;49.830;8.748;2022-11-15T02:15:02;8.02;;;5.18;;
6626;SDS011;3349;49.830;8.748;2022-11-15T02:17:34;6.63;;;4.70;;
6626;SDS011;3349;49.830;8.748;2022-11-15T02:20:23;6.13;;;5.13;;
6626;SDS011;3349;49.830;8.748;2022-11-15T02:26:40;7.57;;;4.20;;
6626;SDS011;3349;49.830;8.748;2022-11-15T02:29:36;7.55;;;4.00;;
6626;SDS011;3349;49.830;8.748;2022-11-15T02:32:18;3.88;;;3.53;;
6626;SDS011;3349;49.830;8.748;2022-11-15T02:34:49;6.50;;;3.97;;
6626;SDS011;3349;49.830;8.748;2022-11-15T02:37:21;4.82;;;4.10;;
6626;SDS011;3349;49.830;8.748;2022-11-15T02:39:57;7.07;;;3.45;;
6626;SDS011;3349;49.830;8.748;2022-11-15T02:42:33;5.07;;;3.58;;
6626;SDS011;3349;49.830;8.748;2022-11-15T02:45:21;5.28;;;3.92;;
6626;SDS011;3349;49.830;8.748;2022-11-15T02:47:54;6.43;;;3.83;;
6626;SDS011;3349;49.830;8.748;2022-11-15T02:50:25;7.35;;;3.65;;
6626;SDS011;3349;49.830;8.748;2022-11-15T02:52:55;5.93;;;3.78;;
6626;SDS011;3349;49.830;8.748;2022-11-15T02:55:26;5.40;;;4.07;;
6626;SDS011;3349;49.830;8.748;2022-11-15T02:57:58;9.60;;;4.28;;
6626;SDS011;3349;49.830;8.748;2022-11-15T03:00:44;4.35;;;3.40;;
6626;SDS011;3349;49.830;8.748;2022-11-15T03:03:23;5.22;;;4.00;;
6626;SDS011;3349;49.830;8.748;2022-11-15T03:06:04;7.60;;;4.07;;
6626;SDS011;3349;49.830;8.748;2022-11-15T03:08:40;4.93;;;3.65;;
6626;SDS011;3349;49.830;8.748;2022-11-15T03:11:14;5.88;;;4.03;;
6626;SDS011;3349;49.830;8.748;2022-11-15T03:13:44;5.90;;;3.55;;
6626;SDS011;3349;49.830;8.748;2022-11-15T03:16:16;7.50;;;4.18;;
6626;SDS011;3349;49.830;8.748;2022-11-15T03:18:49;4.32;;;3.60;;
6626;SDS011;3349;49.830;8.748;2022-11-15T03:21:22;4.65;;;3.83;;
6626;SDS011;3349;49.830;8.748;2022-11-15T03:23:50;5.82;;;3.92;;
6626;SDS011;3349;49.830;8.748;2022-11-15T03:26:19;5.13;;;4.20;;
6626;SDS011;3349;49.830;8.748;2022-11-15T03:28:50;6.10;;;4.50;;
6626;SDS011;3349;49.830;8.748;2022-11-15T03:31:20;6.53;;;4.05;;
6626;SDS011;3349;49.830;8.748;2022-11-15T03:34:10;6.20;;;4.13;;
6626;SDS011;3349;49.830;8.748;2022-11-15T03:36:45;8.35;;;4.78;;
6626;SDS011;3349;49.830;8.748;2022-11-15T03:39:13;7.55;;;4.75;;
6626;SDS011;3349;49.830;8.748;2022-11-15T03:41:42;6.03;;;4.60;;
6626;SDS011;3349;49.830;8.748;2022-11-15T03:44:15;8.55;;;4.60;;
6626;SDS011;3349;49.830;8.748;2022-11-15T03:46:49;5.28;;;4.28;;
6626;SDS011;3349;49.830;8.748;2022-11-15T03:49:26;5.25;;;4.18;;
6626;SDS011;3349;49.830;8.748;2022-11-15T03:51:56;6.63;;;4.07;;
6626;SDS011;3349;49.830;8.748;2022-11-15T03:54:23;6.93;;;4.40;;
6626;SDS011;3349;49.830;8.748;2022-11-15T03:56:50;6.50;;;4.38;;
6626;SDS011;3349;49.830;8.748;2022-11-15T03:59:17;7.53;;;4.53;;
6626;SDS011;3349;49.830;8.748;2022-11-15T04:01:43;5.13;;;4.28;;
6626;SDS011;3349;49.830;8.748;2022-11-15T04:04:10;5.38;;;4.47;;
6626;SDS011;3349;49.830;8.748;2022-11-15T04:06:38;6.32;;;4.55;;
6626;SDS011;3349;49.830;8.748;2022-11-15T04:09:05;8.10;;;4.32;;
6626;SDS011;3349;49.830;8.748;2022-11-15T04:11:32;5.72;;;4.30;;
6626;SDS011;3349;49.830;8.748;2022-11-15T04:13:58;7.45;;;4.50;;
6626;SDS011;3349;49.830;8.748;2022-11-15T04:16:25;9.32;;;4.10;;
6626;SDS011;3349;49.830;8.748;2022-11-15T04:18:52;7.28;;;4.03;;
6626;SDS011;3349;49.830;8.748;2022-11-15T04:21:33;4.53;;;3.78;;
6626;SDS011;3349;49.830;8.748;2022-11-15T04:24:18;5.70;;;4.15;;
6626;SDS011;3349;49.830;8.748;2022-11-15T04:26:45;4.10;;;3.70;;
6626;SDS011;3349;49.830;8.748;2022-11-15T04:29:11;7.72;;;4.85;;
6626;SDS011;3349;49.830;8.748;2022-11-15T04:31:55;4.93;;;4.10;;
6626;SDS011;3349;49.830;8.748;2022-11-15T04:34:22;5.18;;;4.03;;
6626;SDS011;3349;49.830;8.748;2022-11-15T04:36:49;7.45;;;4.35;;
6626;SDS011;3349;49.830;8.748;2022-11-15T04:39:35;5.30;;;4.10;;
6626;SDS011;3349;49.830;8.748;2022-11-15T04:42:02;5.88;;;4.63;;
6626;SDS011;3349;49.830;8.748;2022-11-15T04:44:29;4.90;;;4.40;;
6626;SDS011;3349;49.830;8.748;2022-11-15T04:46:56;6.38;;;4.25;;
6626;SDS011;3349;49.830;8.748;2022-11-15T04:49:22;6.47;;;4.47;;
6626;SDS011;3349;49.830;8.748;2022-11-15T04:51:49;7.10;;;4.07;;
6626;SDS011;3349;49.830;8.748;2022-11-15T04:54:16;6.72;;;4.68;;
6626;SDS011;3349;49.830;8.748;2022-11-15T04:56:44;13.30;;;4.70;;
6626;SDS011;3349;49.830;8.748;2022-11-15T04:59:10;7.03;;;4.60;;
6626;SDS011;3349;49.830;8.748;2022-11-15T05:01:37;5.35;;;4.32;;
6626;SDS011;3349;49.830;8.748;2022-11-15T05:04:04;7.45;;;4.10;;
6626;SDS011;3349;49.830;8.748;2022-11-15T05:06:45;6.03;;;3.95;;
6626;SDS011;3349;49.830;8.748;2022-11-15T05:09:13;4.78;;;4.30;;
6626;SDS011;3349;49.830;8.748;2022-11-15T05:11:40;5.40;;;3.70;;
6626;SDS011;3349;49.830;8.748;2022-11-15T05:14:08;10.48;;;4.05;;
6626;SDS011;3349;49.830;8.748;2022-11-15T05:16:35;5.82;;;4.18;;
6626;SDS011;3349;49.830;8.748;2022-11-15T05:19:02;5.38;;;3.95;;
6626;SDS011;3349;49.830;8.748;2022-11-15T05:21:30;6.03;;;4.25;;
6626;SDS011;3349;49.830;8.748;2022-11-15T05:23:57;5.38;;;3.90;;
6626;SDS011;3349;49.830;8.748;2022-11-15T05:26:24;5.72;;;4.10;;
6626;SDS011;3349;49.830;8.748;2022-11-15T05:28:52;5.93;;;4.00;;
6626;SDS011;3349;49.830;8.748;2022-11-15T05:31:21;6.72;;;4.30;;
6626;SDS011;3349;49.830;8.748;2022-11-15T05:33:48;6.20;;;4.20;;
6626;SDS011;3349;49.830;8.748;2022-11-15T05:36:16;9.20;;;4.70;;
6626;SDS011;3349;49.830;8.748;2022-11-15T05:38:46;6.57;;;3.92;;
6626;SDS011;3349;49.830;8.748;2022-11-15T05:41:14;5.75;;;4.22;;
6626;SDS011;3349;49.830;8.748;2022-11-15T05:43:43;7.72;;;4.03;;
6626;SDS011;3349;49.830;8.748;2022-11-15T05:46:10;4.78;;;4.00;;
6626;SDS011;3349;49.830;8.748;2022-11-15T05:48:41;6.45;;;4.90;;
6626;SDS011;3349;49.830;8.748;2022-11-15T05:51:11;7.53;;;4.95;;
6626;SDS011;3349;49.830;8.748;2022-11-15T05:53:40;5.45;;;3.95;;
6626;SDS011;3349;49.830;8.748;2022-11-15T05:56:06;5.25;;;4.30;;
6626;SDS011;3349;49.830;8.748;2022-11-15T05:58:35;9.45;;;5.07;;
6626;SDS011;3349;49.830;8.748;2022-11-15T06:01:03;8.05;;;5.18;;
6626;SDS011;3349;49.830;8.748;2022-11-15T06:03:30;7.20;;;5.40;;
6626;SDS011;3349;49.830;8.748;2022-11-15T06:05:58;7.28;;;5.03;;
6626;SDS011;3349;49.830;8.748;2022-11-15T06:08:25;7.82;;;4.90;;
6626;SDS011;3349;49.830;8.748;2022-11-15T06:10:52;6.55;;;5.00;;
6626;SDS011;3349;49.830;8.748;2022-11-15T06:13:18;6.45;;;4.88;;
6626;SDS011;3349;49.830;8.748;2022-11-15T06:15:45;5.28;;;4.47;;
6626;SDS011;3349;49.830;8.748;2022-11-15T06:18:12;5.43;;;4.38;;
6626;SDS011;3349;49.830;8.748;2022-11-15T06:20:38;5.95;;;4.75;;
6626;SDS011;3349;49.830;8.748;2022-11-15T06:23:06;7.22;;;5.20;;
6626;SDS011;3349;49.830;8.748;2022-11-15T06:25:33;5.53;;;4.68;;
6626;SDS011;3349;49.830;8.748;2022-11-15T06:28:00;6.10;;;5.07;;
6626;SDS011;3349;49.830;8.748;2022-11-15T06:30:26;6.85;;;4.90;;
6626;SDS011;3349;49.830;8.748;2022-11-15T06:32:58;8.25;;;6.00;;
6626;SDS011;3349;49.830;8.748;2022-11-15T06:35:26;9.63;;;6.38;;
6626;SDS011;3349;49.830;8.748;2022-11-15T06:37:53;9.68;;;6.13;;
6626;SDS011;3349;49.830;8.748;2022-11-15T06:40:21;8.52;;;6.93;;
6626;SDS011;3349;49.830;8.748;2022-11-15T06:42:48;8.43;;;7.35;;
6626;SDS011;3349;49.830;8.748;2022-11-15T06:45:15;7.35;;;6.53;;
6626;SDS011;3349;49.830;8.748;2022-11-15T06:47:45;8.77;;;6.38;;
6626;SDS011;3349;49.830;8.748;2022-11-15T06:50:12;11.60;;;6.63;;
6626;SDS011;3349;49.830;8.748;2022-11-15T06:52:39;7.47;;;6.15;;
6626;SDS011;3349;49.830;8.748;2022-11-15T06:55:06;9.60;;;6.18;;
6626;SDS011;3349;49.830;8.748;2022-11-15T06:57:36;6.53;;;5.53;;
6626;SDS011;3349;49.830;8.748;2022-11-15T07:00:03;7.13;;;5.45;;
6626;SDS011;3349;49.830;8.748;2022-11-15T07:02:31;7.55;;;5.32;;
6626;SDS011;3349;49.830;8.748;2022-11-15T07:04:57;7.53;;;5.55;;
6626;SDS011;3349;49.830;8.748;2022-11-15T07:07:24;6.15;;;5.40;;
6626;SDS011;3349;49.830;8.748;2022-11-15T07:09:51;10.00;;;6.38;;
6626;SDS011;3349;49.830;8.748;2022-11-15T07:12:17;7.80;;;5.70;;
6626;SDS011;3349;49.830;8.748;2022-11-15T07:14:45;9.10;;;5.93;;
6626;SDS011;3349;49.830;8.748;2022-11-15T07:17:12;8.07;;;5.95;;
6626;SDS011;3349;49.830;8.748;2022-11-15T07:19:39;6.90;;;5.63;;
6626;SDS011;3349;49.830;8.748;2022-11-15T07:22:05;9.23;;;6.05;;
6626;SDS011;3349;49.830;8.748;2022-11-15T07:24:32;9.48;;;6.25;;
6626;SDS011;3349;49.830;8.748;2022-11-15T07:26:59;8.32;;;6.80;;
6626;SDS011;3349;49.830;8.748;2022-11-15T07:29:26;10.02;;;7.80;;
6626;SDS011;3349;49.830;8.748;2022-11-15T07:31:54;7.82;;;7.00;;
6626;SDS011;3349;49.830;8.748;2022-11-15T07:34:21;15.25;;;10.50;;
6626;SDS011;3349;49.830;8.748;2022-11-15T07:36:48;17.70;;;12.57;;
6626;SDS011;3349;49.830;8.748;2022-11-15T07:39:15;20.67;;;13.13;;
6626;SDS011;3349;49.830;8.748;2022-11-15T07:41:42;22.73;;;14.02;;
6626;SDS011;3349;49.830;8.748;2022-11-15T07:44:09;17.52;;;13.18;;
6626;SDS011;3349;49.830;8.748;2022-11-15T07:46:36;19.05;;;12.32;;
6626;SDS011;3349;49.830;8.748;2022-11-15T07:49:04;15.77;;;11.20;;
6626;SDS011;3349;49.830;8.748;2022-11-15T07:51:31;18.00;;;12.20;;
6626;SDS011;3349;49.830;8.748;2022-11-15T07:53:57;15.52;;;11.70;;
6626;SDS011;3349;49.830;8.748;2022-11-15T07:56:24;16.48;;;12.00;;
6626;SDS011;3349;49.830;8.748;2022-11-15T07:58:51;14.63;;;12.25;;
6626;SDS011;3349;49.830;8.748;2022-11-15T08:01:18;16.50;;;12.15;;
6626;SDS011;3349;49.830;8.748;2022-11-15T08:03:45;14.10;;;10.85;;
6626;SDS011;3349;49.830;8.748;2022-11-15T08:06:13;14.98;;;10.82;;
6626;SDS011;3349;49.830;8.748;2022-11-15T08:08:39;12.18;;;9.45;;
6626;SDS011;3349;49.830;8.748;2022-11-15T08:11:06;11.20;;;8.48;;
6626;SDS011;3349;49.830;8.748;2022-11-15T08:13:33;18.23;;;7.72;;
6626;SDS011;3349;49.830;8.748;2022-11-15T08:16:01;13.52;;;7.68;;
6626;SDS011;3349;49.830;8.748;2022-11-15T08:18:30;7.65;;;5.93;;
6626;SDS011;3349;49.830;8.748;2022-11-15T08:20:58;10.65;;;5.93;;
6626;SDS011;3349;49.830;8.748;2022-11-15T08:23:27;10.85;;;5.68;;
6626;SDS011;3349;49.830;8.748;2022-11-15T08:25:58;9.18;;;5.50;;
6626;SDS011;3349;49.830;8.748;2022-11-15T08:28:26;7.93;;;5.13;;
6626;SDS011;3349;49.830;8.748;2022-11-15T08:30:52;11.68;;;5.38;;
6626;SDS011;3349;49.830;8.748;2022-11-15T08:33:19;11.15;;;5.65;;
6626;SDS011;3349;49.830;8.748;2022-11-15T08:35:46;10.40;;;4.50;;
6626;SDS011;3349;49.830;8.748;2022-11-15T08:38:13;8.52;;;4.97;;
6626;SDS011;3349;49.830;8.748;2022-11-15T08:40:41;7.20;;;4.97;;
6626;SDS011;3349;49.830;8.748;2022-11-15T08:43:08;7.85;;;4.50;;
6626;SDS011;3349;49.830;8.748;2022-11-15T08:45:35;7.68;;;5.18;;
6626;SDS011;3349;49.830;8.748;2022-11-15T08:48:02;8.38;;;4.72;;
6626;SDS011;3349;49.830;8.748;2022-11-15T08:50:29;7.50;;;4.97;;
6626;SDS011;3349;49.830;8.748;2022-11-15T08:52:56;10.23;;;5.13;;
6626;SDS011;3349;49.830;8.748;2022-11-15T08:55:23;9.93;;;5.05;;
6626;SDS011;3349;49.830;8.748;2022-11-15T08:57:51;12.32;;;5.88;;
6626;SDS011;3349;49.830;8.748;2022-11-15T09:00:18;13.88;;;6.28;;
6626;SDS011;3349;49.830;8.748;2022-11-15T09:02:45;9.40;;;4.95;;
6626;SDS011;3349;49.830;8.748;2022-11-15T09:05:12;12.73;;;6.25;;
6626;SDS011;3349;49.830;8.748;2022-11-15T09:07:40;8.00;;;5.80;;
6626;SDS011;3349;49.830;8.748;2022-11-15T09:10:07;9.23;;;5.80;;
6626;SDS011;3349;49.830;8.748;2022-11-15T09:12:34;10.45;;;5.63;;
6626;SDS011;3349;49.830;8.748;2022-11-15T09:15:02;6.50;;;5.22;;
6626;SDS011;3349;49.830;8.748;2022-11-15T09:17:30;6.85;;;5.07;;
6626;SDS011;3349;49.830;8.748;2022-11-15T09:19:56;8.77;;;5.82;;
6626;SDS011;3349;49.830;8.748;2022-11-15T09:22:23;9.07;;;5.45;;
6626;SDS011;3349;49.830;8.748;2022-11-15T09:24:50;8.38;;;5.95;;
6626;SDS011;3349;49.830;8.748;2022-11-15T09:27:16;6.85;;;4.90;;
6626;SDS011;3349;49.830;8.748;2022-11-15T09:29:43;8.27;;;4.72;;
6626;SDS011;3349;49.830;8.748;2022-11-15T09:32:11;8.80;;;4.95;;
6626;SDS011;3349;49.830;8.748;2022-11-15T09:34:38;7.38;;;4.70;;
6626;SDS011;3349;49.830;8.748;2022-11-15T09:37:04;6.78;;;4.93;;
6626;SDS011;3349;49.830;8.748;2022-11-15T09:39:31;7.93;;;4.75;;
6626;SDS011;3349;49.830;8.748;2022-11-15T09:42:01;5.82;;;4.53;;
6626;SDS011;3349;49.830;8.748;2022-11-15T09:44:42;9.52;;;5.10;;
6626;SDS011;3349;49.830;8.748;2022-11-15T09:47:27;7.57;;;5.88;;
6626;SDS011;3349;49.830;8.748;2022-11-15T09:50:08;9.80;;;5.70;;
6626;SDS011;3349;49.830;8.748;2022-11-15T09:52:37;5.97;;;4.85;;
6626;SDS011;3349;49.830;8.748;2022-11-15T09:55:08;7.00;;;5.15;;
6626;SDS011;3349;49.830;8.748;2022-11-15T09:57:39;7.50;;;5.47;;
6626;SDS011;3349;49.830;8.748;2022-11-15T10:00:14;6.25;;;5.32;;
6626;SDS011;3349;49.830;8.748;2022-11-15T10:02:49;7.53;;;4.90;;
6626;SDS011;3349;49.830;8.748;2022-11-15T10:05:38;6.82;;;5.05;;
6626;SDS011;3349;49.830;8.748;2022-11-15T10:08:11;8.45;;;5.28;;
6626;SDS011;3349;49.830;8.748;2022-11-15T10:10:49;10.30;;;5.00;;
6626;SDS011;3349;49.830;8.748;2022-11-15T10:13:22;8.93;;;5.47;;
6626;SDS011;3349;49.830;8.748;2022-11-15T10:15:51;12.45;;;5.45;;
6626;SDS011;3349;49.830;8.748;2022-11-15T10:18:23;9.13;;;4.53;;
6626;SDS011;3349;49.830;8.748;2022-11-15T10:20:57;10.20;;;5.35;;
6626;SDS011;3349;49.830;8.748;2022-11-15T10:23:25;27.30;;;5.57;;
6626;SDS011;3349;49.830;8.748;2022-11-15T10:25:54;7.60;;;5.07;;
6626;SDS011;3349;49.830;8.748;2022-11-15T10:28:25;12.10;;;4.90;;
6626;SDS011;3349;49.830;8.748;2022-11-15T10:30:54;7.93;;;4.30;;
6626;SDS011;3349;49.830;8.748;2022-11-15T10:33:29;7.60;;;4.28;;
6626;SDS011;3349;49.830;8.748;2022-11-15T10:36:14;6.70;;;4.40;;
6626;SDS011;3349;49.830;8.748;2022-11-15T10:38:53;6.90;;;4.78;;
6626;SDS011;3349;49.830;8.748;2022-11-15T10:41:37;7.30;;;4.70;;
6626;SDS011;3349;49.830;8.748;2022-11-15T10:50:00;7.80;;;4.65;;
6626;SDS011;3349;49.830;8.748;2022-11-15T10:52:30;6.43;;;4.38;;
6626;SDS011;3349;49.830;8.748;2022-11-15T10:55:01;7.18;;;5.03;;
6626;SDS011;3349;49.830;8.748;2022-11-15T10:57:31;5.47;;;3.70;;
6626;SDS011;3349;49.830;8.748;2022-11-15T11:00:03;3.80;;;2.50;;
6626;SDS011;3349;49.830;8.748;2022-11-15T11:02:32;3.08;;;2.55;;
6626;SDS011;3349;49.830;8.748;2022-11-15T11:05:03;4.50;;;2.90;;
6626;SDS011;3349;49.830;8.748;2022-11-15T11:07:32;7.53;;;3.00;;
6626;SDS011;3349;49.830;8.748;2022-11-15T11:10:00;3.65;;;2.25;;
6626;SDS011;3349;49.830;8.748;2022-11-15T11:12:29;3.03;;;2.53;;
6626;SDS011;3349;49.830;8.748;2022-11-15T11:14:58;3.35;;;2.60;;
6626;SDS011;3349;49.830;8.748;2022-11-15T11:17:30;4.47;;;2.60;;
6626;SDS011;3349;49.830;8.748;2022-11-15T11:20:09;3.13;;;1.92;;
6626;SDS011;3349;49.830;8.748;2022-11-15T11:22:39;3.10;;;2.60;;
6626;SDS011;3349;49.830;8.748;2022-11-15T11:25:18;2.35;;;2.00;;
6626;SDS011;3349;49.830;8.748;2022-11-15T11:27:59;2.60;;;2.10;;
6626;SDS011;3349;49.830;8.748;2022-11-15T11:30:46;2.20;;;2.00;;
6626;SDS011;3349;49.830;8.748;2022-11-15T11:33:21;2.40;;;2.17;;
6626;SDS011;3349;49.830;8.748;2022-11-15T11:35:57;3.67;;;2.67;;
6626;SDS011;3349;49.830;8.748;2022-11-15T11:38:44;2.90;;;2.10;;
6626;SDS011;3349;49.830;8.748;2022-11-15T11:41:21;2.80;;;2.25;;
6626;SDS011;3349;49.830;8.748;2022-11-15T11:44:03;2.80;;;2.17;;
6626;SDS011;3349;49.830;8.748;2022-11-15T11:46:48;2.72;;;2.40;;
6626;SDS011;3349;49.830;8.748;2022-11-15T11:49:21;2.30;;;2.10;;
6626;SDS011;3349;49.830;8.748;2022-11-15T11:51:56;2.47;;;2.00;;
6626;SDS011;3349;49.830;8.748;2022-11-15T11:54:30;3.70;;;1.95;;
6626;SDS011;3349;49.830;8.748;2022-11-15T11:57:01;2.90;;;2.20;;
6626;SDS011;3349;49.830;8.748;2022-11-15T11:59:33;3.08;;;1.95;;
6626;SDS011;3349;49.830;8.748;2022-11-15T12:02:08;7.07;;;2.30;;
6626;SDS011;3349;49.830;8.748;2022-11-15T12:04:40;3.65;;;2.28;;
6626;SDS011;3349;49.830;8.748;2022-11-15T12:07:15;3.22;;;2.20;;
6626;SDS011;3349;49.830;8.748;2022-11-15T12:09:48;4.35;;;2.00;;
6626;SDS011;3349;49.830;8.748;2022-11-15T12:12:21;2.90;;;1.95;;
6626;SDS011;3349;49.830;8.748;2022-11-15T12:14:54;2.50;;;2.20;;
6626;SDS011;3349;49.830;8.748;2022-11-15T12:17:24;2.10;;;1.90;;
6626;SDS011;3349;49.830;8.748;2022-11-15T12:19:52;3.17;;;2.13;;
6626;SDS011;3349;49.830;8.748;2022-11-15T12:22:24;3.22;;;1.98;;
6626;SDS011;3349;49.830;8.748;2022-11-15T12:25:07;4.28;;;2.20;;
6626;SDS011;3349;49.830;8.748;2022-11-15T12:27:44;2.45;;;1.60;;
6626;SDS011;3349;49.830;8.748;2022-11-15T12:30:16;3.47;;;2.50;;
6626;SDS011;3349;49.830;8.748;2022-11-15T12:32:52;3.05;;;2.00;;
6626;SDS011;3349;49.830;8.748;2022-11-15T12:35:23;2.55;;;2.10;;
6626;SDS011;3349;49.830;8.748;2022-11-15T12:37:54;2.45;;;2.25;;
6626;SDS011;3349;49.830;8.748;2022-11-15T12:40:32;4.65;;;1.83;;
6626;SDS011;3349;49.830;8.748;2022-11-15T12:46:04;2.65;;;1.98;;
6626;SDS011;3349;49.830;8.748;2022-11-15T12:57:37;2.65;;;2.00;;
6626;SDS011;3349;49.830;8.748;2022-11-15T13:03:27;3.42;;;2.10;;
6626;SDS011;3349;49.830;8.748;2022-11-15T13:05:57;2.20;;;2.00;;
6626;SDS011;3349;49.830;8.748;2022-11-15T13:08:36;4.88;;;2.10;;
6626;SDS011;3349;49.830;8.748;2022-11-15T13:20:00;2.20;;;1.90;;
6626;SDS011;3349;49.830;8.748;2022-11-15T13:22:49;2.10;;;1.83;;
6626;SDS011;3349;49.830;8.748;2022-11-15T13:25:18;2.00;;;1.90;;
6626;SDS011;3349;49.830;8.748;2022-11-15T13:27:53;1.85;;;1.70;;
6626;SDS011;3349;49.830;8.748;2022-11-15T13:30:22;2.22;;;2.03;;
6626;SDS011;3349;49.830;8.748;2022-11-15T13:32:52;1.92;;;1.77;;
6626;SDS011;3349;49.830;8.748;2022-11-15T13:35:20;3.03;;;1.98;;
6626;SDS011;3349;49.830;8.748;2022-11-15T13:37:49;1.90;;;1.63;;
6626;SDS011;3349;49.830;8.748;2022-11-15T13:40:19;4.25;;;1.88;;
6626;SDS011;3349;49.830;8.748;2022-11-15T13:42:52;1.80;;;1.52;;
6626;SDS011;3349;49.830;8.748;2022-11-15T13:45:19;2.10;;;1.90;;
6626;SDS011;3349;49.830;8.748;2022-11-15T13:47:52;1.83;;;1.65;;
6626;SDS011;3349;49.830;8.748;2022-11-15T13:50:21;1.80;;;1.60;;
6626;SDS011;3349;49.830;8.748;2022-11-15T13:52:50;2.10;;;1.90;;
6626;SDS011;3349;49.830;8.748;2022-11-15T13:55:17;3.20;;;1.92;;
6626;SDS011;3349;49.830;8.748;2022-11-15T13:57:47;1.95;;;1.80;;
6626;SDS011;3349;49.830;8.748;2022-11-15T14:00:25;2.60;;;2.00;;
6626;SDS011;3349;49.830;8.748;2022-11-15T14:03:05;2.65;;;2.17;;
6626;SDS011;3349;49.830;8.748;2022-11-15T14:05:40;2.00;;;1.80;;
6626;SDS011;3349;49.830;8.748;2022-11-15T14:08:12;2.28;;;1.88;;
6626;SDS011;3349;49.830;8.748;2022-11-15T14:10:48;3.13;;;2.10;;
6626;SDS011;3349;49.830;8.748;2022-11-15T14:13:33;1.73;;;1.63;;
6626;SDS011;3349;49.830;8.748;2022-11-15T14:16:12;2.13;;;1.65;;
6626;SDS011;3349;49.830;8.748;2022-11-15T14:18:43;3.15;;;1.95;;
6626;SDS011;3349;49.830;8.748;2022-11-15T14:21:11;3.45;;;2.40;;
6626;SDS011;3349;49.830;8.748;2022-11-15T14:23:38;4.75;;;2.72;;
6626;SDS011;3349;49.830;8.748;2022-11-15T14:26:05;3.22;;;2.13;;
6626;SDS011;3349;49.830;8.748;2022-11-15T14:28:37;4.32;;;1.88;;
6626;SDS011;3349;49.830;8.748;2022-11-15T14:31:07;2.35;;;2.15;;
6626;SDS011;3349;49.830;8.748;2022-11-15T14:33:38;3.28;;;2.22;;
6626;SDS011;3349;49.830;8.748;2022-11-15T14:36:11;2.25;;;1.98;;
6626;SDS011;3349;49.830;8.748;2022-11-15T14:38:39;2.95;;;2.10;;
6626;SDS011;3349;49.830;8.748;2022-11-15T14:41:10;3.50;;;2.47;;
6626;SDS011;3349;49.830;8.748;2022-11-15T14:43:42;3.80;;;2.70;;
6626;SDS011;3349;49.830;8.748;2022-11-15T14:46:09;2.67;;;2.13;;
6626;SDS011;3349;49.830;8.748;2022-11-15T14:48:36;3.03;;;2.60;;
6626;SDS011;3349;49.830;8.748;2022-11-15T14:51:03;4.13;;;2.30;;
6626;SDS011;3349;49.830;8.748;2022-11-15T14:53:35;3.85;;;2.58;;
6626;SDS011;3349;49.830;8.748;2022-11-15T14:56:02;3.83;;;2.25;;
6626;SDS011;3349;49.830;8.748;2022-11-15T14:58:29;2.70;;;2.35;;
6626;SDS011;3349;49.830;8.748;2022-11-15T15:00:56;2.58;;;2.30;;
6626;SDS011;3349;49.830;8.748;2022-11-15T15:03:22;2.60;;;2.40;;
6626;SDS011;3349;49.830;8.748;2022-11-15T15:05:49;2.78;;;2.22;;
6626;SDS011;3349;49.830;8.748;2022-11-15T15:08:17;3.53;;;2.35;;
6626;SDS011;3349;49.830;8.748;2022-11-15T15:10:44;3.10;;;2.30;;
6626;SDS011;3349;49.830;8.748;2022-11-15T15:13:14;3.55;;;2.60;;
6626;SDS011;3349;49.830;8.748;2022-11-15T15:15:43;3.33;;;2.38;;
6626;SDS011;3349;49.830;8.748;2022-11-15T15:18:10;4.70;;;2.53;;
6626;SDS011;3349;49.830;8.748;2022-11-15T15:20:37;5.88;;;2.42;;
6626;SDS011;3349;49.830;8.748;2022-11-15T15:23:05;3.05;;;2.33;;
6626;SDS011;3349;49.830;8.748;2022-11-15T15:25:36;4.38;;;2.60;;
6626;SDS011;3349;49.830;8.748;2022-11-15T15:28:03;4.63;;;2.75;;
6626;SDS011;3349;49.830;8.748;2022-11-15T15:30:30;4.72;;;2.80;;
6626;SDS011;3349;49.830;8.748;2022-11-15T15:32:57;3.33;;;2.70;;
6626;SDS011;3349;49.830;8.748;2022-11-15T15:35:23;6.25;;;3.72;;
6626;SDS011;3349;49.830;8.748;2022-11-15T15:37:56;7.53;;;3.85;;
6626;SDS011;3349;49.830;8.748;2022-11-15T15:40:23;6.10;;;3.83;;
6626;SDS011;3349;49.830;8.748;2022-11-15T15:42:52;5.80;;;3.60;;
6626;SDS011;3349;49.830;8.748;2022-11-15T15:45:19;3.88;;;2.83;;
6626;SDS011;3349;49.830;8.748;2022-11-15T15:47:46;3.80;;;3.20;;
6626;SDS011;3349;49.830;8.748;2022-11-15T15:50:17;3.85;;;2.80;;
6626;SDS011;3349;49.830;8.748;2022-11-15T15:52:49;5.45;;;2.50;;
6626;SDS011;3349;49.830;8.748;2022-11-15T15:55:16;3.22;;;2.92;;
6626;SDS011;3349;49.830;8.748;2022-11-15T15:57:43;5.10;;;2.50;;
6626;SDS011;3349;49.830;8.748;2022-11-15T16:00:13;3.47;;;2.42;;
6626;SDS011;3349;49.830;8.748;2022-11-15T16:02:40;3.92;;;2.60;;
6626;SDS011;3349;49.830;8.748;2022-11-15T16:05:07;3.38;;;2.53;;